createdAt,value
2019-04-10T00:00:02.454Z,99.90
2019-04-10T00:02:31.884Z,99.90
2019-04-10T00:04:59.175Z,99.90
2019-04-10T00:07:26.547Z,99.90
2019-04-10T00:09:53.579Z,99.90
2019-04-10T00:12:21.219Z,99.90
2019-04-10T00:14:48.433Z,99.90
2019-04-10T00:17:16.536Z,99.90
2019-04-10T00:19:44.179Z,99.90
2019-04-10T00:22:11.717Z,99.90
2019-04-10T00:24:39.726Z,99.90
2019-04-10T00:27:07.385Z,99.90
2019-04-10T00:29:34.460Z,99.90
2019-04-10T00:32:02.369Z,99.90
2019-04-10T00:34:29.897Z,99.90
2019-04-10T00:36:57.539Z,99.90
2019-04-10T00:39:24.667Z,99.90
2019-04-10T00:41:52.606Z,99.90
2019-04-10T00:44:19.736Z,99.90
2019-04-10T00:46:46.888Z,99.90
2019-04-10T00:49:13.946Z,99.90
2019-04-10T00:51:41.625Z,99.90
2019-04-10T00:54:09.774Z,99.90
2019-04-10T00:56:37.543Z,99.90
2019-04-10T00:59:05.911Z,99.90
2019-04-10T01:01:34.024Z,99.90
2019-04-10T01:04:02.704Z,99.90
2019-04-10T01:06:30.394Z,99.90
2019-04-10T01:08:57.515Z,99.90
2019-04-10T01:11:25.221Z,99.90
2019-04-10T01:13:52.284Z,99.90
2019-04-10T01:16:19.644Z,99.90
2019-04-10T01:18:47.735Z,99.90
2019-04-10T01:21:15.168Z,99.90
2019-04-10T01:23:42.507Z,99.90
2019-04-10T01:26:10.725Z,99.90
2019-04-10T01:28:38.602Z,99.90
2019-04-10T01:31:06.759Z,99.90
2019-04-10T01:33:34.243Z,99.90
2019-04-10T01:36:02.662Z,99.90
2019-04-10T01:38:29.851Z,99.90
2019-04-10T01:40:59.376Z,99.90
2019-04-10T01:43:26.664Z,99.90
2019-04-10T01:45:53.746Z,99.90
2019-04-10T01:48:20.811Z,99.90
2019-04-10T01:50:47.777Z,99.90
2019-04-10T01:53:14.768Z,99.90
2019-04-10T01:55:42.913Z,99.90
2019-04-10T01:58:15.129Z,99.90
2019-04-10T02:00:46.704Z,99.90
2019-04-10T02:03:14.015Z,99.90
2019-04-10T02:05:41.026Z,99.90
2019-04-10T02:08:11.400Z,99.90
2019-04-10T02:10:38.400Z,99.90
2019-04-10T02:13:05.993Z,99.90
2019-04-10T02:15:34.227Z,99.90
2019-04-10T02:18:01.430Z,99.90
2019-04-10T02:20:29.528Z,99.90
2019-04-10T02:22:56.607Z,99.90
2019-04-10T02:25:24.031Z,99.90
2019-04-10T02:27:51.067Z,99.90
2019-04-10T02:30:19.648Z,99.90
2019-04-10T02:32:49.823Z,99.90
2019-04-10T02:35:19.759Z,99.90
2019-04-10T02:37:52.373Z,99.90
2019-04-10T02:40:16.944Z,99.90
2019-04-10T02:42:45.192Z,99.90
2019-04-10T02:45:14.827Z,99.90
2019-04-10T02:47:43.265Z,99.90
2019-04-10T02:50:12.031Z,99.90
2019-04-10T02:52:41.177Z,99.90
2019-04-10T02:55:09.889Z,99.90
2019-04-10T02:57:39.067Z,99.90
2019-04-10T03:00:08.500Z,99.90
2019-04-10T03:02:36.352Z,99.90
2019-04-10T03:05:04.571Z,99.90
2019-04-10T03:07:33.697Z,99.90
2019-04-10T03:10:15.328Z,99.90
2019-04-10T03:12:32.345Z,99.90
2019-04-10T03:15:00.997Z,99.90
2019-04-10T03:17:28.311Z,99.90
2019-04-10T03:19:56.084Z,99.90
2019-04-10T03:22:24.978Z,99.90
2019-04-10T03:24:52.811Z,99.90
2019-04-10T03:27:20.537Z,99.90
2019-04-10T03:29:48.481Z,99.90
2019-04-10T03:32:41.408Z,99.90
2019-04-10T03:35:14.979Z,99.90
2019-04-10T03:37:42.531Z,99.90
2019-04-10T03:40:09.726Z,99.90
2019-04-10T03:42:37.110Z,99.90
2019-04-10T03:45:05.551Z,99.90
2019-04-10T03:47:33.455Z,99.90
2019-04-10T03:50:02.695Z,99.90
2019-04-10T03:52:30.147Z,99.90
2019-04-10T03:54:57.145Z,99.90
2019-04-10T03:57:24.669Z,99.90
2019-04-10T03:59:51.871Z,99.90
2019-04-10T04:02:19.844Z,99.90
2019-04-10T04:04:47.980Z,99.90
2019-04-10T04:07:16.172Z,99.90
2019-04-10T04:09:43.976Z,99.90
2019-04-10T04:12:11.042Z,99.90
2019-04-10T04:14:38.811Z,99.90
2019-04-10T04:17:06.117Z,99.90
2019-04-10T04:19:34.452Z,99.90
2019-04-10T04:22:01.604Z,99.90
2019-04-10T04:24:29.125Z,99.90
2019-04-10T04:26:57.258Z,99.90
2019-04-10T04:29:24.776Z,99.90
2019-04-10T04:31:52.622Z,99.90
2019-04-10T04:34:20.813Z,99.90
2019-04-10T04:36:49.173Z,99.90
2019-04-10T04:39:23.233Z,99.90
2019-04-10T04:41:45.759Z,99.90
2019-04-10T04:44:14.487Z,99.90
2019-04-10T04:46:42.832Z,99.90
2019-04-10T04:49:10.146Z,99.90
2019-04-10T04:51:37.227Z,99.90
2019-04-10T04:54:04.599Z,99.90
2019-04-10T04:56:31.805Z,99.90
2019-04-10T04:58:59.456Z,99.90
2019-04-10T05:01:27.532Z,99.90
2019-04-10T05:03:54.885Z,99.90
2019-04-10T05:06:22.299Z,99.90
2019-04-10T05:08:50.594Z,99.90
2019-04-10T05:11:18.321Z,99.90
2019-04-10T05:13:45.459Z,99.90
2019-04-10T05:16:12.570Z,99.90
2019-04-10T05:18:39.698Z,99.90
2019-04-10T05:21:06.722Z,99.90
2019-04-10T05:23:33.699Z,99.90
2019-04-10T05:26:00.935Z,99.90
2019-04-10T05:28:28.519Z,99.90
2019-04-10T05:30:58.832Z,99.90
2019-04-10T05:33:26.805Z,99.90
2019-04-10T05:35:54.902Z,99.90
2019-04-10T05:38:22.802Z,99.90
2019-04-10T05:40:50.700Z,99.90
2019-04-10T05:43:18.408Z,99.90
2019-04-10T05:45:46.409Z,99.90
2019-04-10T05:48:14.044Z,99.90
2019-04-10T05:50:52.530Z,99.90
2019-04-10T05:53:10.078Z,99.90
2019-04-10T05:55:37.182Z,99.90
2019-04-10T05:58:04.994Z,99.90
2019-04-10T06:00:32.662Z,99.90
2019-04-10T06:03:00.464Z,99.90
2019-04-10T06:05:27.710Z,99.90
2019-04-10T06:07:55.100Z,99.90
2019-04-10T06:10:22.189Z,99.90
2019-04-10T06:12:49.217Z,99.90
2019-04-10T06:15:16.939Z,99.90
2019-04-10T06:17:44.879Z,99.90
2019-04-10T06:20:13.991Z,99.90
2019-04-10T06:22:41.277Z,99.90
2019-04-10T06:25:11.726Z,99.90
2019-04-10T06:27:38.747Z,99.90
2019-04-10T06:30:06.220Z,99.90
2019-04-10T06:32:34.387Z,99.90
2019-04-10T06:35:02.179Z,99.90
2019-04-10T06:37:30.352Z,99.90
2019-04-10T06:40:07.677Z,99.90
2019-04-10T06:42:27.136Z,99.90
2019-04-10T06:44:54.395Z,99.90
2019-04-10T06:47:22.310Z,99.90
2019-04-10T06:49:50.521Z,99.90
2019-04-10T06:52:18.586Z,99.90
2019-04-10T06:54:47.008Z,99.90
2019-04-10T06:57:14.659Z,99.90
2019-04-10T06:59:42.367Z,99.90
2019-04-10T07:02:21.769Z,99.90
2019-04-10T07:04:46.065Z,99.90
2019-04-10T07:07:12.653Z,99.90
2019-04-10T07:09:37.943Z,99.90
2019-04-10T07:12:05.180Z,99.90
2019-04-10T07:14:36.502Z,99.90
2019-04-10T07:17:05.532Z,99.90
2019-04-10T07:19:32.385Z,99.90
2019-04-10T07:22:01.499Z,99.90
2019-04-10T07:24:29.244Z,99.90
2019-04-10T07:26:58.065Z,99.90
2019-04-10T07:29:29.645Z,99.90
2019-04-10T07:31:58.392Z,99.90
2019-04-10T07:34:28.509Z,99.90
2019-04-10T07:36:54.707Z,99.90
2019-04-10T07:39:26.014Z,99.90
2019-04-10T07:41:51.751Z,99.90
2019-04-10T07:44:19.179Z,99.90
2019-04-10T07:46:46.591Z,99.90
2019-04-10T07:49:16.828Z,99.90
2019-04-10T07:51:43.026Z,99.90
2019-04-10T07:54:10.368Z,99.90
2019-04-10T07:56:37.588Z,99.90
2019-04-10T07:59:05.204Z,99.90
2019-04-10T08:01:33.442Z,99.90
2019-04-10T08:04:00.526Z,99.90
2019-04-10T08:06:27.889Z,99.90
2019-04-10T08:08:55.486Z,99.90
2019-04-10T08:11:23.955Z,99.90
2019-04-10T08:13:51.445Z,99.90
2019-04-10T08:16:19.006Z,99.90
2019-04-10T08:18:47.732Z,99.90
2019-04-10T08:21:15.613Z,99.90
2019-04-10T08:23:42.914Z,99.90
2019-04-10T08:26:10.147Z,99.90
2019-04-10T08:28:37.477Z,99.90
2019-04-10T08:31:04.659Z,99.90
2019-04-10T08:33:32.235Z,99.90
2019-04-10T08:35:59.328Z,99.90
2019-04-10T08:38:27.686Z,99.90
2019-04-10T08:40:55.061Z,99.90
2019-04-10T08:43:22.447Z,99.90
2019-04-10T08:45:52.126Z,99.90
2019-04-10T08:48:18.857Z,99.90
2019-04-10T08:50:46.142Z,99.90
2019-04-10T08:53:13.841Z,99.90
2019-04-10T08:55:42.105Z,99.90
2019-04-10T08:58:10.313Z,99.90
2019-04-10T09:00:38.686Z,99.90
2019-04-10T09:03:06.783Z,99.90
2019-04-10T09:05:35.709Z,99.90
2019-04-10T09:08:06.174Z,99.90
2019-04-10T09:10:34.512Z,99.90
2019-04-10T09:13:04.272Z,99.90
2019-04-10T09:15:34.443Z,99.90
2019-04-10T09:18:02.484Z,99.90
2019-04-10T09:20:31.297Z,99.90
2019-04-10T09:23:17.800Z,99.90
2019-04-10T09:25:29.621Z,99.90
2019-04-10T09:27:56.759Z,99.90
2019-04-10T09:30:24.758Z,99.90
2019-04-10T09:32:52.792Z,99.90
2019-04-10T09:35:20.421Z,99.90
2019-04-10T09:37:48.375Z,99.90
2019-04-10T09:40:16.319Z,99.90
2019-04-10T09:42:43.815Z,99.90
2019-04-10T09:45:12.187Z,99.90
2019-04-10T09:47:39.595Z,99.90
2019-04-10T09:50:07.781Z,99.90
2019-04-10T09:52:35.684Z,99.90
2019-04-10T09:55:05.130Z,99.90
2019-04-10T09:57:32.563Z,99.90
2019-04-10T10:00:00.908Z,99.90
2019-04-10T10:02:28.022Z,99.90
2019-04-10T10:04:55.632Z,99.90
2019-04-10T10:07:22.880Z,99.90
2019-04-10T10:09:51.329Z,99.90
2019-04-10T10:12:20.104Z,99.90
2019-04-10T10:14:48.371Z,99.90
2019-04-10T10:17:16.795Z,99.90
2019-04-10T10:19:44.658Z,99.90
2019-04-10T10:22:12.752Z,99.90
2019-04-10T10:24:40.473Z,99.90
2019-04-10T10:27:07.667Z,99.90
2019-04-10T10:29:35.619Z,99.90
2019-04-10T10:32:04.527Z,99.90
2019-04-10T10:34:32.787Z,99.90
2019-04-10T10:37:00.123Z,99.90
2019-04-10T10:39:28.590Z,99.90
2019-04-10T10:41:56.467Z,99.90
2019-04-10T10:44:23.850Z,99.90
2019-04-10T10:46:51.573Z,99.90
2019-04-10T10:49:20.153Z,99.90
2019-04-10T10:51:49.248Z,99.90
2019-04-10T10:54:16.934Z,99.90
2019-04-10T10:56:44.713Z,99.30
2019-04-10T10:59:13.189Z,99.90
2019-04-10T11:01:42.136Z,99.90
2019-04-10T11:04:10.842Z,99.90
2019-04-10T11:06:49.511Z,99.90
2019-04-10T11:09:12.714Z,99.90
2019-04-10T11:11:40.901Z,97.50
2019-04-10T11:14:08.102Z,97.80
2019-04-10T11:16:35.347Z,97.30
2019-04-10T11:19:02.907Z,99.90
2019-04-10T11:21:30.300Z,99.40
2019-04-10T11:23:58.417Z,95.50
2019-04-10T11:26:25.769Z,99.70
2019-04-10T11:28:55.654Z,96.10
2019-04-10T11:31:23.801Z,94.10
2019-04-10T11:33:55.604Z,94.00
2019-04-10T11:36:21.399Z,94.30
2019-04-10T11:38:49.297Z,93.00
2019-04-10T11:41:18.052Z,91.80
2019-04-10T11:44:09.086Z,91.60
2019-04-10T11:46:38.702Z,89.10
2019-04-10T11:49:08.115Z,91.60
2019-04-10T11:51:38.741Z,91.00
2019-04-10T11:54:11.019Z,93.40
2019-04-10T11:56:36.245Z,87.00
2019-04-10T11:59:07.639Z,89.70
2019-04-10T12:01:34.761Z,92.10
2019-04-10T12:04:06.766Z,90.50
2019-04-10T12:06:37.607Z,91.00
2019-04-10T12:09:45.306Z,91.20
2019-04-10T12:11:37.371Z,90.10
2019-04-10T12:14:05.043Z,88.00
2019-04-10T12:16:35.608Z,85.50
2019-04-10T12:19:02.927Z,91.90
2019-04-10T12:21:30.138Z,87.50
2019-04-10T12:23:58.855Z,89.60
2019-04-10T12:26:27.570Z,90.40
2019-04-10T12:28:55.032Z,87.60
2019-04-10T12:31:22.571Z,88.80
2019-04-10T12:33:50.523Z,89.20
2019-04-10T12:36:18.305Z,91.80
2019-04-10T12:38:45.867Z,85.20
2019-04-10T12:41:13.818Z,86.90
2019-04-10T12:43:41.141Z,84.70
2019-04-10T12:46:08.695Z,83.90
2019-04-10T12:48:36.841Z,81.60
2019-04-10T12:51:05.525Z,83.50
2019-04-10T12:53:33.834Z,82.70
2019-04-10T12:56:01.948Z,85.80
2019-04-10T12:58:32.951Z,91.20
2019-04-10T13:01:00.457Z,84.40
2019-04-10T13:03:29.085Z,84.40
2019-04-10T13:05:57.671Z,85.20
2019-04-10T13:08:39.996Z,85.40
2019-04-10T13:10:56.091Z,85.80
2019-04-10T13:13:24.249Z,88.70
2019-04-10T13:15:51.976Z,86.90
2019-04-10T13:18:19.238Z,88.10
2019-04-10T13:20:47.046Z,90.30
2019-04-10T13:23:17.751Z,89.90
2019-04-10T13:25:55.445Z,90.10
2019-04-10T13:28:15.156Z,85.20
2019-04-10T13:30:49.685Z,85.00
2019-04-10T13:33:12.125Z,84.40
2019-04-10T13:35:40.067Z,79.90
2019-04-10T13:38:08.782Z,78.70
2019-04-10T13:40:36.122Z,80.00
2019-04-10T13:43:03.409Z,82.00
2019-04-10T13:45:31.224Z,85.10
2019-04-10T13:47:58.827Z,81.20
2019-04-10T13:50:29.138Z,79.20
2019-04-10T13:52:57.503Z,78.70
2019-04-10T13:55:26.296Z,78.70
2019-04-10T13:57:53.631Z,75.80
2019-04-10T14:00:28.125Z,75.70
2019-04-10T14:02:56.613Z,77.30
2019-04-10T14:05:26.155Z,78.60
2019-04-10T14:07:53.481Z,80.90
2019-04-10T14:10:23.098Z,78.60
2019-04-10T14:12:51.414Z,77.90
2019-04-10T14:15:18.904Z,77.50
2019-04-10T14:17:48.006Z,79.80
2019-04-10T14:20:17.349Z,75.70
2019-04-10T14:22:54.243Z,75.60
2019-04-10T14:25:42.075Z,78.20
2019-04-10T14:28:09.440Z,75.00
2019-04-10T14:30:38.138Z,79.30
2019-04-10T14:33:05.335Z,79.00
2019-04-10T14:35:33.591Z,72.70
2019-04-10T14:38:01.412Z,73.50
2019-04-10T14:40:29.103Z,73.40
2019-04-10T14:42:57.639Z,76.70
2019-04-10T14:45:25.609Z,75.80
2019-04-10T14:47:53.954Z,74.10
2019-04-10T14:50:22.275Z,75.00
2019-04-10T14:52:49.636Z,74.30
2019-04-10T14:55:16.708Z,73.80
2019-04-10T14:57:43.770Z,72.50
2019-04-10T15:00:18.474Z,73.60
2019-04-10T15:02:46.459Z,71.80
2019-04-10T15:05:14.163Z,72.40
2019-04-10T15:07:41.138Z,71.20
2019-04-10T15:10:08.720Z,70.40
2019-04-10T15:12:35.774Z,72.00
2019-04-10T15:15:03.933Z,72.40
2019-04-10T15:17:32.895Z,71.20
2019-04-10T15:20:06.925Z,70.20
2019-04-10T15:22:45.824Z,72.30
2019-04-10T15:25:19.230Z,72.90
2019-04-10T15:27:46.746Z,65.90
2019-04-10T15:30:14.580Z,65.70
2019-04-10T15:32:42.133Z,64.60
2019-04-10T15:35:10.836Z,63.40
2019-04-10T15:37:38.003Z,63.20
2019-04-10T15:40:18.316Z,63.80
2019-04-10T15:42:34.869Z,64.60
2019-04-10T15:45:03.106Z,64.90
2019-04-10T15:47:31.278Z,63.40
2019-04-10T15:49:58.464Z,64.40
2019-04-10T15:52:27.008Z,63.00
2019-04-10T15:54:55.442Z,61.30
2019-04-10T15:57:24.866Z,61.10
2019-04-10T15:59:52.519Z,60.90
2019-04-10T16:02:19.926Z,59.40
2019-04-10T16:04:48.961Z,58.70
2019-04-10T16:07:16.207Z,58.10
2019-04-10T16:09:47.440Z,57.20
2019-04-10T16:12:14.612Z,55.70
2019-04-10T16:14:41.831Z,55.90
2019-04-10T16:17:22.224Z,54.50
2019-04-10T16:20:09.184Z,52.60
2019-04-10T16:22:42.706Z,51.60
2019-04-10T16:25:25.586Z,51.70
2019-04-10T16:27:53.589Z,52.70
2019-04-10T16:30:24.101Z,52.50
2019-04-10T16:32:52.332Z,51.20
2019-04-10T16:35:19.738Z,50.40
2019-04-10T16:37:47.474Z,51.40
2019-04-10T16:40:15.023Z,52.30
2019-04-10T16:42:43.608Z,52.40
2019-04-10T16:45:12.122Z,52.40
2019-04-10T16:47:39.324Z,52.60
2019-04-10T16:50:06.657Z,54.10
2019-04-10T16:52:34.881Z,54.10
2019-04-10T16:55:02.935Z,53.50
2019-04-10T16:57:31.083Z,53.50
2019-04-10T16:59:59.145Z,54.80
2019-04-10T17:02:26.647Z,55.50
2019-04-10T17:04:54.178Z,58.20
2019-04-10T17:07:21.591Z,56.40
2019-04-10T17:09:51.419Z,55.00
2019-04-10T17:12:19.850Z,54.40
2019-04-10T17:14:47.826Z,55.70
2019-04-10T17:17:15.653Z,57.60
2019-04-10T17:19:49.340Z,59.00
2019-04-10T17:22:11.820Z,59.30
2019-04-10T17:24:39.783Z,60.50
2019-04-10T17:27:07.945Z,61.00
2019-04-10T17:29:36.795Z,62.40
2019-04-10T17:32:04.721Z,63.40
2019-04-10T17:34:32.622Z,63.90
2019-04-10T17:37:01.123Z,65.10
2019-04-10T17:39:29.706Z,65.50
2019-04-10T17:41:57.798Z,66.20
2019-04-10T17:44:25.602Z,66.50
2019-04-10T17:46:52.811Z,66.20
2019-04-10T17:49:20.357Z,66.10
2019-04-10T17:51:47.555Z,67.50
2019-04-10T17:54:14.795Z,67.80
2019-04-10T17:56:42.229Z,70.70
2019-04-10T17:59:09.838Z,72.20
2019-04-10T18:01:37.518Z,72.70
2019-04-10T18:04:05.583Z,73.10
2019-04-10T18:06:33.784Z,73.20
2019-04-10T18:09:01.870Z,74.70
2019-04-10T18:11:32.063Z,75.30
2019-04-10T18:14:00.827Z,75.50
2019-04-10T18:16:29.539Z,76.40
2019-04-10T18:18:56.918Z,77.30
2019-04-10T18:21:24.611Z,78.20
2019-04-10T18:23:52.095Z,81.30
2019-04-10T18:26:20.610Z,80.80
2019-04-10T18:28:48.362Z,83.10
2019-04-10T18:31:16.571Z,84.70
2019-04-10T18:33:44.747Z,86.10
2019-04-10T18:36:13.397Z,88.20
2019-04-10T18:38:41.685Z,90.00
2019-04-10T18:41:09.211Z,91.00
2019-04-10T18:43:36.767Z,91.90
2019-04-10T18:46:12.182Z,93.40
2019-04-10T18:48:34.645Z,94.70
2019-04-10T18:51:02.381Z,96.30
2019-04-10T18:53:29.854Z,97.90
2019-04-10T18:55:56.919Z,99.30
2019-04-10T18:58:27.572Z,99.90
2019-04-10T19:01:14.288Z,99.90
2019-04-10T19:04:05.955Z,99.90
2019-04-10T19:06:51.565Z,99.90
2019-04-10T19:09:24.628Z,99.90
2019-04-10T19:11:48.931Z,99.90
2019-04-10T19:14:16.343Z,99.90
2019-04-10T19:16:43.977Z,99.90
2019-04-10T19:19:12.068Z,99.90
2019-04-10T19:21:39.991Z,99.90
2019-04-10T19:24:08.116Z,99.90
2019-04-10T19:26:35.660Z,99.90
2019-04-10T19:29:03.372Z,99.90
2019-04-10T19:31:33.355Z,99.90
2019-04-10T19:34:01.137Z,99.90
2019-04-10T19:36:28.234Z,99.90
2019-04-10T19:38:55.866Z,99.90
2019-04-10T19:41:29.690Z,99.90
2019-04-10T19:43:54.684Z,99.90
2019-04-10T19:46:22.241Z,99.90
2019-04-10T19:48:51.816Z,99.90
2019-04-10T19:51:18.633Z,99.90
2019-04-10T19:53:46.408Z,99.90
2019-04-10T19:56:14.673Z,99.90
2019-04-10T19:58:42.553Z,99.90
2019-04-10T20:01:10.865Z,99.90
2019-04-10T20:03:39.554Z,99.90
2019-04-10T20:06:09.487Z,99.90
2019-04-10T20:08:36.872Z,99.90
2019-04-10T20:11:08.847Z,99.90
2019-04-10T20:13:36.199Z,99.90
2019-04-10T20:16:03.306Z,99.90
2019-04-10T20:18:30.343Z,99.90
2019-04-10T20:20:57.761Z,99.90
2019-04-10T20:23:25.733Z,99.90
2019-04-10T20:25:54.606Z,99.90
2019-04-10T20:28:22.793Z,99.90
2019-04-10T20:30:52.325Z,99.90
2019-04-10T20:33:20.784Z,99.90
2019-04-10T20:35:48.825Z,99.90
2019-04-10T20:38:17.526Z,99.90
2019-04-10T20:40:44.959Z,99.90
2019-04-10T20:43:13.341Z,99.90
2019-04-10T20:45:40.452Z,99.90
2019-04-10T20:48:08.568Z,99.90
2019-04-10T20:50:36.288Z,99.90
2019-04-10T20:53:04.069Z,99.90
2019-04-10T20:55:31.483Z,99.90
2019-04-10T20:57:59.625Z,99.90
2019-04-10T21:00:30.480Z,99.90
2019-04-10T21:02:58.481Z,99.90
2019-04-10T21:05:26.148Z,99.90
2019-04-10T21:07:54.187Z,99.90
2019-04-10T21:10:21.411Z,99.90
2019-04-10T21:12:48.722Z,99.90
2019-04-10T21:15:17.412Z,99.90
2019-04-10T21:17:44.497Z,99.90
2019-04-10T21:20:13.516Z,99.90
2019-04-10T21:22:40.774Z,99.90
2019-04-10T21:25:08.348Z,99.90
2019-04-10T21:27:35.545Z,99.90
2019-04-10T21:30:28.511Z,99.90
2019-04-10T21:33:05.849Z,99.90
2019-04-10T21:35:35.080Z,99.90
2019-04-10T21:38:02.622Z,99.90
2019-04-10T21:40:30.623Z,99.90
2019-04-10T21:42:58.209Z,99.90
2019-04-10T21:45:26.474Z,99.90
2019-04-10T21:47:54.385Z,99.90
2019-04-10T21:50:21.765Z,99.90
2019-04-10T21:52:49.752Z,99.90
2019-04-10T21:55:17.131Z,99.90
2019-04-10T21:57:44.826Z,99.90
2019-04-10T22:00:14.105Z,99.90
2019-04-10T22:02:44.980Z,99.90
2019-04-10T22:05:12.738Z,99.90
2019-04-10T22:07:53.718Z,99.90
2019-04-10T22:10:36.099Z,99.90
2019-04-10T22:13:03.782Z,99.90
2019-04-10T22:15:35.210Z,99.90
2019-04-10T22:18:03.073Z,99.90
2019-04-10T22:20:30.318Z,99.90
2019-04-10T22:22:57.682Z,99.90
2019-04-10T22:25:25.594Z,99.90
2019-04-10T22:27:54.161Z,99.90
2019-04-10T22:30:21.493Z,99.90
2019-04-10T22:32:49.302Z,99.90
2019-04-10T22:35:17.454Z,99.90
2019-04-10T22:37:46.246Z,99.90
2019-04-10T22:40:13.641Z,99.90
2019-04-10T22:42:46.078Z,99.90
2019-04-10T22:45:23.352Z,99.90
2019-04-10T22:47:50.703Z,99.90
2019-04-10T22:50:18.041Z,99.90
2019-04-10T22:52:45.429Z,99.90
2019-04-10T22:55:12.625Z,99.90
2019-04-10T22:57:41.518Z,99.90
2019-04-10T23:00:13.856Z,99.90
2019-04-10T23:02:44.183Z,99.90
2019-04-10T23:05:13.066Z,99.90
2019-04-10T23:07:40.042Z,99.90
2019-04-10T23:10:13.199Z,99.90
2019-04-10T23:12:52.235Z,99.90
2019-04-10T23:15:15.356Z,99.90
2019-04-10T23:17:43.198Z,99.90
2019-04-10T23:20:11.018Z,99.90
2019-04-10T23:22:38.203Z,99.90
2019-04-10T23:25:05.549Z,99.90
2019-04-10T23:27:33.507Z,99.90
2019-04-10T23:30:01.038Z,99.90
2019-04-10T23:32:29.073Z,99.90
2019-04-10T23:34:56.951Z,99.90
2019-04-10T23:37:24.077Z,99.90
2019-04-10T23:39:52.372Z,99.90
2019-04-10T23:42:21.336Z,99.90
2019-04-10T23:44:49.138Z,99.90
2019-04-10T23:47:16.277Z,99.90
2019-04-10T23:49:43.771Z,99.90
2019-04-10T23:52:11.761Z,99.90
2019-04-10T23:54:39.492Z,99.90
2019-04-10T23:57:07.376Z,99.90
2019-04-10T23:59:35.128Z,99.90
